createdAt,value
2022-08-05T00:00:18.495Z,4.30
2022-08-05T00:03:04.758Z,4.00
2022-08-05T00:06:05.612Z,4.53
2022-08-05T00:08:35.216Z,4.47
2022-08-05T00:11:20.622Z,4.45
2022-08-05T00:13:55.483Z,5.40
2022-08-05T00:16:36.592Z,4.95
2022-08-05T00:19:10.057Z,4.82
2022-08-05T00:21:37.297Z,5.07
2022-08-05T00:24:10.418Z,5.45
2022-08-05T00:26:39.417Z,5.15
2022-08-05T00:29:18.131Z,5.60
2022-08-05T00:32:09.436Z,5.70
2022-08-05T00:37:20.297Z,5.97
2022-08-05T00:39:57.310Z,5.43
2022-08-05T00:42:34.751Z,5.90
2022-08-05T00:45:02.384Z,5.18
2022-08-05T00:47:53.042Z,5.70
2022-08-05T00:50:20.923Z,5.40
2022-08-05T00:52:48.543Z,5.45
2022-08-05T00:55:15.629Z,5.80
2022-08-05T00:57:58.607Z,6.10
2022-08-05T01:00:28.642Z,6.00
2022-08-05T01:02:57.045Z,5.75
2022-08-05T01:05:27.589Z,6.57
2022-08-05T01:08:41.128Z,5.68
2022-08-05T01:10:52.412Z,5.57
2022-08-05T01:13:27.524Z,6.30
2022-08-05T01:16:46.685Z,5.90
2022-08-05T01:19:46.215Z,5.57
2022-08-05T01:22:24.211Z,6.50
2022-08-05T01:25:10.099Z,5.40
2022-08-05T01:28:00.029Z,6.13
2022-08-05T01:30:33.539Z,5.72
2022-08-05T01:33:08.373Z,5.30
2022-08-05T01:35:52.107Z,5.85
2022-08-05T01:38:26.820Z,6.78
2022-08-05T01:41:01.376Z,5.88
2022-08-05T01:43:30.648Z,6.28
2022-08-05T01:46:07.572Z,6.22
2022-08-05T01:48:49.596Z,5.80
2022-08-05T01:51:18.984Z,6.80
2022-08-05T01:53:57.742Z,6.25
2022-08-05T01:58:12.155Z,6.30
2022-08-05T01:59:28.345Z,6.07
2022-08-05T02:02:00.633Z,5.78
2022-08-05T02:04:30.151Z,6.65
2022-08-05T02:06:58.988Z,6.65
2022-08-05T02:09:27.297Z,6.70
2022-08-05T02:12:04.954Z,6.32
2022-08-05T02:15:05.385Z,6.55
2022-08-05T02:18:31.447Z,6.85
2022-08-05T02:20:30.821Z,6.00
2022-08-05T02:23:10.899Z,6.25
2022-08-05T02:25:49.173Z,6.20
2022-08-05T02:28:29.168Z,5.85
2022-08-05T02:31:04.891Z,6.70
2022-08-05T02:33:42.086Z,5.05
2022-08-05T02:36:13.560Z,7.03
2022-08-05T02:38:52.788Z,5.80
2022-08-05T02:41:28.636Z,7.70
2022-08-05T02:44:13.489Z,6.18
2022-08-05T02:46:58.837Z,5.47
2022-08-05T02:49:36.723Z,5.88
2022-08-05T02:52:11.528Z,6.85
2022-08-05T02:54:50.586Z,6.65
2022-08-05T02:58:20.087Z,7.38
2022-08-05T03:00:08.763Z,6.88
2022-08-05T03:02:39.529Z,6.57
2022-08-05T03:05:10.524Z,7.03
2022-08-05T03:08:00.937Z,6.50
2022-08-05T03:10:27.157Z,6.72
2022-08-05T03:12:55.007Z,7.43
2022-08-05T03:15:23.363Z,7.13
2022-08-05T03:17:55.757Z,6.63
2022-08-05T03:20:24.680Z,7.40
2022-08-05T03:22:53.237Z,7.65
2022-08-05T03:25:33.176Z,7.78
2022-08-05T03:28:14.453Z,7.85
2022-08-05T03:30:47.618Z,6.97
2022-08-05T03:33:16.281Z,7.45
2022-08-05T03:35:45.763Z,6.72
2022-08-05T03:38:14.419Z,7.65
2022-08-05T03:40:45.046Z,8.25
2022-08-05T03:44:09.598Z,7.30
2022-08-05T03:46:03.904Z,7.57
2022-08-05T03:48:35.399Z,7.07
2022-08-05T03:52:36.628Z,7.05
2022-08-05T03:55:52.347Z,7.57
2022-08-05T03:57:16.473Z,7.35
2022-08-05T04:00:01.680Z,7.63
2022-08-05T04:02:52.019Z,7.38
2022-08-05T04:05:33.863Z,6.70
2022-08-05T04:08:14.490Z,7.35
2022-08-05T04:10:50.625Z,5.93
2022-08-05T04:13:18.639Z,5.63
2022-08-05T04:15:52.834Z,6.82
2022-08-05T04:18:32.263Z,6.95
2022-08-05T04:21:02.693Z,6.18
2022-08-05T04:23:57.376Z,6.40
2022-08-05T04:26:20.215Z,6.18
2022-08-05T04:28:50.782Z,5.85
2022-08-05T04:31:18.823Z,6.20
2022-08-05T04:34:17.269Z,5.82
2022-08-05T04:36:45.259Z,7.55
2022-08-05T04:39:13.912Z,5.80
2022-08-05T04:41:41.378Z,5.45
2022-08-05T04:44:08.915Z,6.10
2022-08-05T04:46:36.262Z,5.70
2022-08-05T04:49:03.993Z,6.60
2022-08-05T04:51:32.537Z,6.15
2022-08-05T04:54:02.378Z,5.10
2022-08-05T04:56:34.587Z,5.82
2022-08-05T04:59:22.129Z,6.18
2022-08-05T05:02:06.927Z,5.78
2022-08-05T05:04:36.207Z,5.70
2022-08-05T05:07:09.411Z,5.60
2022-08-05T05:09:37.440Z,5.40
2022-08-05T05:12:06.150Z,5.03
2022-08-05T05:14:36.243Z,4.82
2022-08-05T05:17:03.742Z,5.07
2022-08-05T05:19:36.515Z,4.18
2022-08-05T05:22:24.364Z,5.15
2022-08-05T05:24:57.669Z,7.45
2022-08-05T05:27:45.168Z,5.85
2022-08-05T05:30:29.052Z,5.10
2022-08-05T05:33:15.832Z,6.47
2022-08-05T05:35:46.744Z,5.15
2022-08-05T05:38:22.228Z,4.50
2022-08-05T05:40:56.234Z,4.85
2022-08-05T05:43:57.014Z,4.60
2022-08-05T05:46:17.395Z,4.88
2022-08-05T05:48:48.920Z,3.97
2022-08-05T05:51:24.457Z,3.78
2022-08-05T05:53:57.464Z,4.22
2022-08-05T05:56:34.112Z,4.10
2022-08-05T05:59:07.015Z,4.73
2022-08-05T06:01:39.435Z,5.32
2022-08-05T06:04:13.110Z,5.97
2022-08-05T06:06:46.732Z,7.57
2022-08-05T06:09:25.814Z,4.20
2022-08-05T06:12:04.375Z,4.15
2022-08-05T06:14:31.860Z,4.40
2022-08-05T06:17:22.458Z,4.07
2022-08-05T06:19:57.103Z,3.80
2022-08-05T06:22:29.701Z,4.13
2022-08-05T06:24:57.715Z,3.70
2022-08-05T06:28:10.756Z,5.18
2022-08-05T06:30:17.956Z,4.45
2022-08-05T06:32:48.303Z,4.65
2022-08-05T06:36:03.194Z,4.13
2022-08-05T06:38:11.228Z,4.60
2022-08-05T06:40:44.331Z,3.70
2022-08-05T06:43:59.420Z,3.70
2022-08-05T06:46:04.094Z,5.95
2022-08-05T06:48:54.549Z,4.35
2022-08-05T06:51:29.861Z,3.63
2022-08-05T06:54:03.239Z,3.80
2022-08-05T06:56:34.291Z,3.70
2022-08-05T06:59:03.862Z,3.88
2022-08-05T07:01:36.148Z,3.60
2022-08-05T07:04:04.196Z,3.72
2022-08-05T07:06:31.758Z,4.15
2022-08-05T07:09:03.752Z,4.03
2022-08-05T07:11:36.766Z,3.90
2022-08-05T07:14:29.821Z,4.00
2022-08-05T07:18:01.164Z,3.60
2022-08-05T07:22:39.639Z,4.03
2022-08-05T07:25:23.091Z,3.40
2022-08-05T07:28:04.229Z,3.33
2022-08-05T07:30:38.579Z,3.50
2022-08-05T07:33:16.454Z,3.60
2022-08-05T07:36:04.334Z,3.65
2022-08-05T07:38:43.432Z,3.88
2022-08-05T07:42:13.011Z,4.60
2022-08-05T07:44:13.977Z,5.72
2022-08-05T07:46:48.231Z,3.58
2022-08-05T07:49:15.916Z,3.33
2022-08-05T07:51:53.536Z,3.63
2022-08-05T07:54:31.486Z,3.70
2022-08-05T07:57:18.005Z,3.67
2022-08-05T07:59:49.952Z,4.35
2022-08-05T08:02:18.155Z,3.60
2022-08-05T08:04:47.316Z,3.33
2022-08-05T08:07:15.326Z,9.20
2022-08-05T08:09:43.320Z,3.80
2022-08-05T08:12:29.682Z,5.10
2022-08-05T08:15:02.673Z,4.07
2022-08-05T08:17:34.455Z,4.07
2022-08-05T08:20:23.516Z,3.33
2022-08-05T08:22:59.420Z,3.65
2022-08-05T08:25:59.746Z,3.63
2022-08-05T08:28:36.793Z,3.72
2022-08-05T08:31:08.824Z,3.15
2022-08-05T08:33:37.854Z,3.67
2022-08-05T08:38:57.008Z,2.97
2022-08-05T08:41:50.973Z,3.40
2022-08-05T08:45:24.865Z,3.20
2022-08-05T08:47:22.295Z,3.28
2022-08-05T08:50:05.747Z,3.20
2022-08-05T08:53:01.365Z,3.40
2022-08-05T08:56:01.812Z,3.17
2022-08-05T08:58:17.289Z,3.17
2022-08-05T09:00:45.172Z,3.30
2022-08-05T09:03:16.022Z,15.93
2022-08-05T09:06:07.868Z,3.53
2022-08-05T09:08:35.237Z,3.10
2022-08-05T09:11:08.542Z,8.68
2022-08-05T09:14:01.280Z,3.70
2022-08-05T09:16:27.514Z,3.40
2022-08-05T09:18:55.503Z,3.30
2022-08-05T09:22:22.532Z,3.40
2022-08-05T09:24:12.877Z,3.10
2022-08-05T09:26:40.976Z,3.30
2022-08-05T09:29:11.016Z,3.70
2022-08-05T09:32:41.920Z,5.10
2022-08-05T09:34:55.119Z,4.20
2022-08-05T09:38:12.125Z,3.47
2022-08-05T09:40:29.388Z,3.67
2022-08-05T09:42:56.933Z,3.80
2022-08-05T09:46:07.422Z,3.45
2022-08-05T09:48:34.718Z,3.17
2022-08-05T09:51:15.366Z,3.60
2022-08-05T09:53:58.942Z,4.00
2022-08-05T09:56:33.514Z,3.40
2022-08-05T09:59:04.212Z,3.15
2022-08-05T10:01:33.742Z,3.42
2022-08-05T10:04:16.035Z,3.40
2022-08-05T10:06:59.627Z,3.47
2022-08-05T10:09:29.875Z,3.80
2022-08-05T10:12:18.916Z,3.50
2022-08-05T10:15:20.956Z,4.70
2022-08-05T10:18:07.773Z,3.47
2022-08-05T10:20:38.873Z,3.15
2022-08-05T10:23:21.773Z,3.60
2022-08-05T10:25:59.346Z,3.47
2022-08-05T10:28:29.410Z,3.60
2022-08-05T10:32:47.910Z,3.22
2022-08-05T10:33:52.382Z,3.47
2022-08-05T10:36:23.456Z,3.78
2022-08-05T10:38:59.128Z,3.20
2022-08-05T10:41:46.411Z,3.28
2022-08-05T10:44:18.463Z,3.80
2022-08-05T10:46:54.055Z,3.45
2022-08-05T10:49:26.852Z,3.53
2022-08-05T10:52:03.273Z,3.88
2022-08-05T10:55:02.616Z,3.50
2022-08-05T10:57:31.877Z,3.75
2022-08-05T11:00:13.261Z,4.40
2022-08-05T11:03:24.720Z,3.53
2022-08-05T11:06:15.363Z,3.72
2022-08-05T11:09:13.103Z,3.92
2022-08-05T11:11:53.361Z,3.50
2022-08-05T11:18:00.151Z,3.78
2022-08-05T11:20:32.538Z,4.15
2022-08-05T11:23:05.985Z,3.90
2022-08-05T11:26:05.553Z,3.75
2022-08-05T11:28:35.868Z,4.47
2022-08-05T11:31:06.473Z,4.32
2022-08-05T11:33:54.801Z,4.32
2022-08-05T11:36:42.991Z,3.88
2022-08-05T11:39:12.145Z,4.20
2022-08-05T11:42:01.430Z,4.55
2022-08-05T11:44:52.754Z,4.20
2022-08-05T11:47:48.673Z,3.50
2022-08-05T11:50:10.460Z,4.03
2022-08-05T11:52:44.138Z,4.32
2022-08-05T11:55:13.697Z,4.10
2022-08-05T11:58:11.012Z,4.03
2022-08-05T12:00:38.020Z,4.43
2022-08-05T12:03:29.349Z,4.45
2022-08-05T12:06:06.148Z,4.10
2022-08-05T12:08:51.228Z,4.38
2022-08-05T12:11:22.864Z,4.07
2022-08-05T12:13:58.732Z,4.60
2022-08-05T12:16:29.474Z,4.90
2022-08-05T12:18:56.571Z,4.80
2022-08-05T12:21:30.150Z,5.07
2022-08-05T12:23:57.829Z,4.60
2022-08-05T12:26:39.139Z,4.60
2022-08-05T12:29:09.393Z,5.15
2022-08-05T12:31:47.699Z,4.00
2022-08-05T12:34:21.278Z,4.90
2022-08-05T12:36:53.656Z,4.72
2022-08-05T12:39:22.205Z,4.35
2022-08-05T12:41:51.172Z,4.63
2022-08-05T12:44:33.311Z,4.57
2022-08-05T12:47:02.500Z,5.60
2022-08-05T12:50:03.835Z,4.75
2022-08-05T12:52:42.057Z,4.88
2022-08-05T12:55:17.986Z,5.20
2022-08-05T12:58:49.513Z,4.45
2022-08-05T13:02:00.259Z,4.78
2022-08-05T13:03:32.360Z,4.63
2022-08-05T13:06:01.971Z,4.13
2022-08-05T13:08:32.558Z,4.30
2022-08-05T13:11:04.137Z,3.95
2022-08-05T13:14:04.992Z,4.50
2022-08-05T13:16:20.287Z,4.60
2022-08-05T13:18:53.086Z,4.68
2022-08-05T13:21:28.374Z,4.90
2022-08-05T13:24:08.571Z,4.07
2022-08-05T13:26:36.443Z,3.92
2022-08-05T13:29:05.111Z,3.85
2022-08-05T13:32:02.827Z,3.97
2022-08-05T13:34:25.927Z,4.38
2022-08-05T13:36:54.714Z,4.40
2022-08-05T13:40:13.568Z,5.00
2022-08-05T13:42:14.348Z,5.35
2022-08-05T13:44:46.182Z,4.05
2022-08-05T13:47:35.569Z,4.10
2022-08-05T13:50:04.598Z,4.07
2022-08-05T13:52:35.593Z,3.92
2022-08-05T13:55:07.747Z,4.35
2022-08-05T13:57:48.960Z,4.43
2022-08-05T14:00:27.059Z,4.13
2022-08-05T14:02:58.089Z,3.75
2022-08-05T14:05:48.084Z,4.28
2022-08-05T14:08:21.096Z,4.40
2022-08-05T14:11:03.323Z,4.07
2022-08-05T14:13:42.807Z,4.07
2022-08-05T14:16:11.597Z,4.10
2022-08-05T14:18:44.069Z,5.07
2022-08-05T14:22:08.962Z,4.38
2022-08-05T14:24:00.560Z,4.60
2022-08-05T14:26:38.313Z,4.40
2022-08-05T14:29:16.213Z,4.63
2022-08-05T14:32:02.882Z,5.35
2022-08-05T14:34:35.459Z,4.63
2022-08-05T14:37:05.963Z,4.55
2022-08-05T14:39:50.087Z,4.65
2022-08-05T14:42:22.350Z,3.90
2022-08-05T14:44:49.869Z,4.38
2022-08-05T14:48:02.473Z,4.35
2022-08-05T14:50:18.480Z,4.63
2022-08-05T14:52:57.728Z,4.20
2022-08-05T14:55:39.080Z,4.50
2022-08-05T14:58:11.857Z,4.80
2022-08-05T15:00:59.796Z,4.65
2022-08-05T15:03:34.042Z,5.32
2022-08-05T15:06:15.391Z,5.40
2022-08-05T15:08:59.887Z,5.32
2022-08-05T15:11:52.832Z,4.95
2022-08-05T15:14:34.769Z,5.35
2022-08-05T15:17:09.916Z,5.10
2022-08-05T15:19:56.587Z,4.80
2022-08-05T15:22:27.212Z,5.03
2022-08-05T15:24:56.678Z,4.78
2022-08-05T15:27:25.528Z,5.20
2022-08-05T15:29:54.233Z,4.68
2022-08-05T15:32:28.893Z,4.45
2022-08-05T15:34:57.159Z,4.80
2022-08-05T15:38:34.622Z,4.32
2022-08-05T15:40:59.596Z,4.90
2022-08-05T15:43:10.929Z,5.10
2022-08-05T15:45:45.677Z,4.28
2022-08-05T15:48:14.994Z,4.13
2022-08-05T15:50:43.642Z,4.85
2022-08-05T15:53:13.847Z,4.40
2022-08-05T15:56:01.305Z,4.30
2022-08-05T15:58:29.270Z,7.60
2022-08-05T16:01:11.768Z,8.35
2022-08-05T16:03:48.443Z,7.10
2022-08-05T16:06:20.095Z,6.40
2022-08-05T16:08:51.185Z,5.50
2022-08-05T16:11:40.012Z,5.63
2022-08-05T16:14:09.142Z,5.00
2022-08-05T16:16:36.750Z,5.32
2022-08-05T16:19:04.278Z,4.78
2022-08-05T16:22:00.045Z,5.40
2022-08-05T16:24:40.242Z,6.38
2022-08-05T16:27:07.813Z,7.60
2022-08-05T16:29:37.676Z,5.55
2022-08-05T16:32:09.539Z,5.72
2022-08-05T16:34:39.250Z,5.00
2022-08-05T16:38:01.837Z,5.53
2022-08-05T16:40:06.047Z,4.85
2022-08-05T16:42:35.743Z,5.18
2022-08-05T16:45:05.882Z,4.80
2022-08-05T16:47:53.616Z,5.50
2022-08-05T16:50:23.122Z,5.53
2022-08-05T16:52:50.743Z,5.10
2022-08-05T16:55:20.387Z,5.13
2022-08-05T16:57:59.752Z,5.10
2022-08-05T17:00:37.750Z,4.75
2022-08-05T17:03:09.232Z,5.10
2022-08-05T17:05:50.206Z,4.75
2022-08-05T17:08:36.569Z,5.30
2022-08-05T17:11:12.521Z,5.63
2022-08-05T17:13:45.276Z,7.50
2022-08-05T17:16:32.860Z,6.25
2022-08-05T17:19:00.445Z,5.78
2022-08-05T17:21:35.507Z,6.88
2022-08-05T17:24:20.496Z,7.03
2022-08-05T17:26:57.085Z,7.25
2022-08-05T17:29:33.682Z,6.68
2022-08-05T17:32:11.745Z,8.07
2022-08-05T17:34:46.230Z,6.70
2022-08-05T17:37:39.396Z,6.55
2022-08-05T17:40:10.216Z,5.95
2022-08-05T17:42:42.995Z,6.13
2022-08-05T17:45:20.042Z,5.70
2022-08-05T17:47:54.533Z,5.85
2022-08-05T17:50:28.045Z,5.75
2022-08-05T17:52:59.049Z,6.03
2022-08-05T17:55:37.617Z,6.43
2022-08-05T17:58:11.252Z,6.10
2022-08-05T18:00:44.925Z,6.32
2022-08-05T18:03:56.004Z,7.20
2022-08-05T18:06:11.197Z,7.70
2022-08-05T18:08:45.940Z,7.95
2022-08-05T18:11:23.200Z,8.75
2022-08-05T18:13:52.477Z,7.45
2022-08-05T18:16:20.578Z,6.95
2022-08-05T18:18:49.925Z,7.07
2022-08-05T18:21:21.062Z,7.00
2022-08-05T18:23:53.886Z,6.65
2022-08-05T18:26:27.454Z,7.20
2022-08-05T18:28:57.648Z,7.03
2022-08-05T18:31:25.388Z,7.55
2022-08-05T18:34:01.035Z,8.15
2022-08-05T18:36:29.547Z,8.85
2022-08-05T18:38:56.750Z,8.68
2022-08-05T18:41:54.054Z,7.78
2022-08-05T18:44:12.705Z,7.72
2022-08-05T18:46:41.047Z,8.63
2022-08-05T18:49:30.315Z,7.80
2022-08-05T18:52:16.806Z,8.18
2022-08-05T18:54:45.745Z,7.63
2022-08-05T18:57:15.180Z,7.40
2022-08-05T19:00:01.816Z,9.27
2022-08-05T19:02:30.474Z,10.48
2022-08-05T19:05:02.933Z,8.88
2022-08-05T19:07:50.183Z,8.00
2022-08-05T19:10:19.274Z,8.80
2022-08-05T19:12:56.850Z,9.13
2022-08-05T19:15:57.292Z,9.68
2022-08-05T19:18:21.910Z,8.57
2022-08-05T19:20:56.070Z,8.57
2022-08-05T19:24:07.387Z,8.27
2022-08-05T19:26:11.889Z,8.07
2022-08-05T19:28:43.821Z,8.57
2022-08-05T19:31:13.606Z,9.93
2022-08-05T19:33:48.694Z,8.18
2022-08-05T19:36:25.317Z,7.32
2022-08-05T19:38:57.381Z,8.32
2022-08-05T19:42:05.822Z,8.60
2022-08-05T19:44:16.595Z,7.55
2022-08-05T19:46:43.982Z,8.43
2022-08-05T19:49:12.426Z,7.13
2022-08-05T19:52:13.316Z,8.25
2022-08-05T19:54:35.730Z,7.93
2022-08-05T19:57:08.585Z,8.18
2022-08-05T19:59:55.446Z,8.10
2022-08-05T20:02:27.790Z,8.18
2022-08-05T20:04:58.506Z,7.85
2022-08-05T20:07:46.175Z,8.20
2022-08-05T20:10:15.823Z,8.60
2022-08-05T20:12:47.943Z,8.50
2022-08-05T20:15:23.210Z,8.27
2022-08-05T20:18:10.819Z,8.23
2022-08-05T20:20:57.047Z,8.57
2022-08-05T20:23:39.703Z,7.72
2022-08-05T20:26:16.184Z,8.43
2022-08-05T20:28:50.614Z,8.60
2022-08-05T20:31:22.775Z,8.13
2022-08-05T20:33:51.056Z,8.25
2022-08-05T20:36:18.952Z,8.75
2022-08-05T20:38:54.187Z,8.10
2022-08-05T20:41:43.748Z,8.60
2022-08-05T20:44:18.900Z,10.83
2022-08-05T20:46:57.982Z,8.75
2022-08-05T20:49:25.895Z,8.70
2022-08-05T20:51:55.121Z,9.13
2022-08-05T20:54:43.514Z,8.60
2022-08-05T20:57:42.084Z,9.35
2022-08-05T21:00:20.552Z,8.55
2022-08-05T21:02:55.464Z,8.70
2022-08-05T21:05:24.646Z,8.50
2022-08-05T21:07:52.556Z,8.57
2022-08-05T21:10:20.731Z,7.88
2022-08-05T21:13:08.874Z,8.82
2022-08-05T21:15:36.750Z,8.38
2022-08-05T21:18:04.439Z,8.55
2022-08-05T21:20:32.980Z,8.48
2022-08-05T21:23:01.219Z,9.13
2022-08-05T21:25:33.906Z,8.63
2022-08-05T21:28:02.895Z,9.07
2022-08-05T21:30:31.455Z,9.75
2022-08-05T21:32:58.759Z,9.30
2022-08-05T21:35:29.757Z,8.82
2022-08-05T21:37:58.238Z,8.77
2022-08-05T21:40:25.741Z,8.52
2022-08-05T21:42:53.892Z,8.63
2022-08-05T21:45:38.098Z,8.40
2022-08-05T21:48:09.828Z,9.00
2022-08-05T21:50:37.588Z,9.75
2022-08-05T21:53:16.408Z,9.48
2022-08-05T21:56:04.882Z,9.38
2022-08-05T21:58:32.431Z,9.80
2022-08-05T22:01:00.745Z,9.57
2022-08-05T22:03:52.185Z,8.68
2022-08-05T22:06:22.272Z,9.43
2022-08-05T22:08:51.991Z,8.82
2022-08-05T22:11:34.728Z,9.30
2022-08-05T22:14:19.353Z,9.00
2022-08-05T22:16:56.920Z,8.95
2022-08-05T22:19:57.159Z,9.30
2022-08-05T22:22:15.945Z,10.27
2022-08-05T22:25:01.609Z,9.55
2022-08-05T22:28:04.943Z,9.13
2022-08-05T22:30:34.929Z,9.68
2022-08-05T22:33:15.765Z,9.57
2022-08-05T22:35:48.730Z,9.50
2022-08-05T22:38:19.722Z,8.90
2022-08-05T22:40:49.775Z,9.52
2022-08-05T22:43:37.295Z,9.85
2022-08-05T22:46:13.510Z,9.68
2022-08-05T22:48:50.758Z,9.90
2022-08-05T22:51:23.248Z,9.68
2022-08-05T22:54:05.817Z,9.52
2022-08-05T22:56:33.026Z,8.70
2022-08-05T22:59:04.655Z,8.90
2022-08-05T23:02:04.293Z,8.88
2022-08-05T23:04:33.517Z,8.90
2022-08-05T23:07:00.904Z,9.15
2022-08-05T23:09:53.311Z,9.32
2022-08-05T23:12:17.887Z,11.27
2022-08-05T23:14:45.287Z,9.68
2022-08-05T23:17:34.466Z,9.10
2022-08-05T23:20:17.451Z,9.15
2022-08-05T23:22:48.654Z,9.88
2022-08-05T23:25:53.156Z,9.07
2022-08-05T23:28:07.114Z,9.25
2022-08-05T23:30:40.480Z,9.43
2022-08-05T23:33:16.134Z,9.40
2022-08-05T23:35:51.057Z,9.82
2022-08-05T23:38:18.470Z,8.77
2022-08-05T23:40:49.829Z,9.18
2022-08-05T23:43:25.387Z,9.13
2022-08-05T23:48:59.666Z,9.10
2022-08-05T23:51:54.295Z,8.63
2022-08-05T23:54:30.234Z,10.15
2022-08-05T23:57:03.359Z,9.13
